Time;durP1;ratioP1;P1;durP2;ratioP2;P2;SDS_P1;SDS_P2;PMS_P1;PMS_P2;Temp;Humidity;BMP_temperature;BMP_pressure;BME280_temperature;BME280_humidity;BME280_pressure;Samples;Min_cycle;Max_cycle;Signal;HPM_P1;HPM_P2
2023/03/16 00:02:17;;;;;;;6.90;2.83;;;;;;;;;;5121115;28;20449;-71
2023/03/16 00:04:46;;;;;;;7.87;3.40;;;;;;;;;;5122195;28;20547;-71
2023/03/16 00:07:25;;;;;;;4.60;2.90;;;;;;;;;;5121199;28;20434;-71
2023/03/16 00:10:02;;;;;;;12.17;2.90;;;;;;;;;;5104942;28;20482;-71
2023/03/16 00:12:38;;;;;;;5.63;2.97;;;;;;;;;;5107369;28;20466;-71
2023/03/16 00:15:08;;;;;;;6.67;2.80;;;;;;;;;;5103923;28;20866;-71
2023/03/16 00:17:38;;;;;;;7.47;3.10;;;;;;;;;;5108268;28;20460;-71
2023/03/16 00:20:09;;;;;;;6.37;3.57;;;;;;;;;;5110470;28;20719;-71
2023/03/16 00:22:38;;;;;;;5.27;2.57;;;;;;;;;;5107904;28;20455;-71
2023/03/16 00:25:07;;;;;;;4.50;2.80;;;;;;;;;;5110877;28;20486;-71
2023/03/16 00:27:36;;;;;;;5.13;2.60;;;;;;;;;;5109108;28;20452;-71
2023/03/16 00:30:04;;;;;;;5.97;2.60;;;;;;;;;;5108534;28;20486;-71
2023/03/16 00:32:36;;;;;;;11.57;4.77;;;;;;;;;;5111306;28;20507;-71
2023/03/16 00:35:06;;;;;;;12.10;3.70;;;;;;;;;;5123923;27;20465;-71
2023/03/16 00:37:35;;;;;;;12.43;5.13;;;;;;;;;;5100359;28;20471;-71
2023/03/16 00:40:06;;;;;;;20.93;5.83;;;;;;;;;;5100629;28;20447;-72
2023/03/16 00:42:34;;;;;;;10.83;3.77;;;;;;;;;;5100581;28;20558;-71
2023/03/16 00:45:02;;;;;;;7.47;3.70;;;;;;;;;;5100456;28;20452;-71
2023/03/16 00:47:30;;;;;;;8.53;4.37;;;;;;;;;;5100543;28;20519;-71
2023/03/16 00:49:58;;;;;;;10.17;3.40;;;;;;;;;;5100326;28;20490;-71
2023/03/16 00:52:27;;;;;;;6.77;3.07;;;;;;;;;;5100398;28;20456;-71
2023/03/16 00:54:56;;;;;;;8.83;3.20;;;;;;;;;;5104655;28;20901;-71
2023/03/16 00:57:24;;;;;;;5.10;2.40;;;;;;;;;;5120751;28;20465;-71
2023/03/16 00:59:52;;;;;;;4.80;2.70;;;;;;;;;;5120387;28;20454;-71
2023/03/16 01:02:22;;;;;;;9.33;2.60;;;;;;;;;;5120047;28;20495;-71
2023/03/16 01:04:50;;;;;;;4.70;2.33;;;;;;;;;;5116220;28;20466;-71
2023/03/16 01:07:18;;;;;;;8.07;2.63;;;;;;;;;;5099110;28;20501;-71
2023/03/16 01:09:47;;;;;;;5.50;2.70;;;;;;;;;;5099355;28;20491;-71
2023/03/16 01:12:16;;;;;;;6.07;2.47;;;;;;;;;;5099337;28;20786;-71
2023/03/16 01:14:45;;;;;;;3.67;2.00;;;;;;;;;;5099019;28;20451;-71
2023/03/16 01:17:12;;;;;;;9.27;2.50;;;;;;;;;;5098622;28;20930;-71
2023/03/16 01:19:40;;;;;;;4.93;2.30;;;;;;;;;;5099632;28;20520;-71
2023/03/16 01:22:10;;;;;;;4.73;2.60;;;;;;;;;;5099151;28;20704;-71
2023/03/16 01:24:38;;;;;;;6.03;2.57;;;;;;;;;;5099734;28;20459;-71
2023/03/16 01:27:07;;;;;;;5.60;2.63;;;;;;;;;;5099684;28;20743;-71
2023/03/16 01:29:36;;;;;;;6.20;2.10;;;;;;;;;;5102873;28;20493;-71
2023/03/16 01:32:04;;;;;;;8.47;2.30;;;;;;;;;;5120392;28;20451;-71
2023/03/16 01:34:31;;;;;;;6.37;2.70;;;;;;;;;;5119266;28;20494;-71
2023/03/16 01:36:59;;;;;;;5.10;1.60;;;;;;;;;;5119170;28;20476;-71
2023/03/16 01:39:26;;;;;;;9.23;2.43;;;;;;;;;;5119520;28;20451;-71
2023/03/16 01:41:54;;;;;;;7.97;2.10;;;;;;;;;;5119312;28;20529;-71
2023/03/16 01:44:29;;;;;;;7.97;2.70;;;;;;;;;;5119851;28;20459;-71
2023/03/16 01:46:57;;;;;;;3.77;1.50;;;;;;;;;;5116927;28;20438;-71
2023/03/16 01:49:26;;;;;;;5.30;2.50;;;;;;;;;;5099184;28;20462;-71
2023/03/16 01:51:55;;;;;;;5.57;2.40;;;;;;;;;;5100029;28;20546;-71
2023/03/16 01:54:26;;;;;;;4.50;2.07;;;;;;;;;;5099083;28;20852;-71
2023/03/16 01:56:58;;;;;;;6.20;1.90;;;;;;;;;;5098716;28;20451;-71
2023/03/16 01:59:28;;;;;;;6.63;2.20;;;;;;;;;;5099133;28;20459;-71
2023/03/16 02:01:57;;;;;;;3.40;2.17;;;;;;;;;;5099192;28;20456;-71
2023/03/16 02:04:30;;;;;;;3.83;2.20;;;;;;;;;;5098224;28;20466;-71
2023/03/16 02:07:00;;;;;;;4.40;1.60;;;;;;;;;;5098958;28;20448;-71
2023/03/16 02:09:28;;;;;;;4.43;1.90;;;;;;;;;;5098672;28;20456;-71
2023/03/16 02:11:56;;;;;;;4.57;2.23;;;;;;;;;;5098563;28;20447;-71
2023/03/16 02:14:24;;;;;;;5.47;2.10;;;;;;;;;;5099204;27;20466;-71
2023/03/16 02:16:54;;;;;;;7.73;2.30;;;;;;;;;;5099238;28;20444;-70
2023/03/16 02:19:28;;;;;;;5.73;2.40;;;;;;;;;;5098134;28;20459;-70
2023/03/16 02:21:58;;;;;;;7.90;2.33;;;;;;;;;;5097696;28;20576;-71
2023/03/16 02:24:26;;;;;;;4.63;1.90;;;;;;;;;;5097956;28;20879;-71
2023/03/16 02:26:56;;;;;;;6.63;1.97;;;;;;;;;;5098415;28;20459;-71
2023/03/16 02:29:37;;;;;;;4.87;2.00;;;;;;;;;;5098703;28;20456;-71
2023/03/16 02:32:07;;;;;;;4.07;2.07;;;;;;;;;;5098348;28;20749;-71
2023/03/16 02:34:36;;;;;;;9.40;2.70;;;;;;;;;;5098616;28;20444;-70
2023/03/16 02:37:04;;;;;;;3.13;2.00;;;;;;;;;;5116558;28;21236;-71
2023/03/16 02:39:34;;;;;;;5.90;2.10;;;;;;;;;;5098058;28;20868;-71
2023/03/16 02:42:02;;;;;;;11.20;2.63;;;;;;;;;;5098103;28;20456;-71
2023/03/16 02:44:33;;;;;;;3.90;2.03;;;;;;;;;;5105044;27;20933;-71
2023/03/16 02:47:06;;;;;;;4.80;2.50;;;;;;;;;;5139339;27;20536;-71
2023/03/16 02:49:37;;;;;;;3.07;1.63;;;;;;;;;;5139084;27;20450;-71
2023/03/16 02:52:05;;;;;;;3.33;1.77;;;;;;;;;;5139894;27;20454;-71
2023/03/16 02:54:33;;;;;;;9.03;2.10;;;;;;;;;;5138973;27;20446;-71
2023/03/16 02:57:00;;;;;;;6.90;2.73;;;;;;;;;;5139293;27;20522;-71
2023/03/16 02:59:28;;;;;;;3.47;1.93;;;;;;;;;;5139008;27;20449;-71
2023/03/16 03:01:55;;;;;;;8.20;2.60;;;;;;;;;;5139172;27;20710;-71
2023/03/16 03:04:23;;;;;;;6.20;2.53;;;;;;;;;;5115982;27;20936;-70
2023/03/16 03:06:52;;;;;;;10.17;2.70;;;;;;;;;;5098143;28;20459;-71
2023/03/16 03:09:21;;;;;;;4.67;2.03;;;;;;;;;;5098487;28;20451;-71
2023/03/16 03:11:49;;;;;;;5.40;2.20;;;;;;;;;;5126833;27;20478;-71
2023/03/16 03:14:17;;;;;;;5.70;2.50;;;;;;;;;;5139559;28;20469;-71
2023/03/16 03:16:45;;;;;;;6.00;2.33;;;;;;;;;;5138878;28;20446;-71
2023/03/16 03:19:13;;;;;;;4.90;2.13;;;;;;;;;;5139116;28;20460;-71
2023/03/16 03:21:41;;;;;;;6.53;2.57;;;;;;;;;;5138469;28;20524;-71
2023/03/16 03:24:13;;;;;;;7.33;2.37;;;;;;;;;;5114744;28;20456;-72
2023/03/16 03:26:40;;;;;;;5.23;2.37;;;;;;;;;;5097657;28;20459;-71
2023/03/16 03:29:08;;;;;;;5.77;2.40;;;;;;;;;;5098125;28;20917;-71
2023/03/16 03:31:36;;;;;;;5.33;2.33;;;;;;;;;;5098551;28;20484;-71
2023/03/16 03:34:05;;;;;;;2.70;1.60;;;;;;;;;;5102006;28;20883;-71
2023/03/16 03:36:36;;;;;;;4.63;2.43;;;;;;;;;;5101917;28;20523;-71
2023/03/16 03:39:04;;;;;;;9.10;2.63;;;;;;;;;;5101837;28;20791;-71
2023/03/16 03:41:34;;;;;;;2.77;1.87;;;;;;;;;;5116330;27;20446;-71
2023/03/16 03:44:05;;;;;;;7.63;2.57;;;;;;;;;;5122371;28;20531;-71
2023/03/16 03:46:35;;;;;;;5.27;2.50;;;;;;;;;;5122412;28;20803;-71
2023/03/16 03:49:04;;;;;;;3.73;2.40;;;;;;;;;;5121537;28;20889;-71
2023/03/16 03:51:31;;;;;;;4.03;2.13;;;;;;;;;;5121675;28;20490;-71
2023/03/16 03:53:59;;;;;;;6.57;2.27;;;;;;;;;;5122533;28;20511;-71
2023/03/16 03:56:27;;;;;;;7.20;2.50;;;;;;;;;;5121924;28;20457;-71
2023/03/16 03:58:56;;;;;;;6.23;2.20;;;;;;;;;;5122066;28;20869;-70
2023/03/16 04:01:23;;;;;;;8.70;3.33;;;;;;;;;;5121988;28;20447;-72
2023/03/16 04:03:51;;;;;;;8.73;3.20;;;;;;;;;;5122209;28;20462;-71
2023/03/16 04:06:18;;;;;;;6.10;2.57;;;;;;;;;;5121638;28;20450;-71
2023/03/16 04:08:46;;;;;;;5.77;2.63;;;;;;;;;;5105310;28;20460;-71
2023/03/16 04:11:14;;;;;;;8.60;2.90;;;;;;;;;;5100791;28;20494;-71
2023/03/16 04:13:41;;;;;;;3.63;2.37;;;;;;;;;;5100683;28;20527;-72
2023/03/16 04:16:15;;;;;;;4.20;2.37;;;;;;;;;;5121317;27;20446;-71
2023/03/16 04:18:44;;;;;;;4.40;2.40;;;;;;;;;;5109776;27;20455;-71
2023/03/16 04:21:14;;;;;;;3.60;1.90;;;;;;;;;;5100716;28;20471;-71
2023/03/16 04:23:42;;;;;;;6.90;2.00;;;;;;;;;;5112111;28;20465;-71
2023/03/16 04:26:09;;;;;;;5.10;2.20;;;;;;;;;;5121261;28;20457;-71
2023/03/16 04:28:37;;;;;;;5.23;2.20;;;;;;;;;;5119342;28;20780;-72
2023/03/16 04:31:06;;;;;;;5.73;2.53;;;;;;;;;;5120561;28;20489;-71
2023/03/16 04:33:35;;;;;;;7.03;2.53;;;;;;;;;;5121493;28;20481;-72
2023/03/16 04:38:45;;;;;;;3.40;2.07;;;;;;;;;;5110730;28;20451;-71
2023/03/16 04:41:12;;;;;;;4.70;2.10;;;;;;;;;;5119935;27;20452;-71
2023/03/16 04:43:40;;;;;;;4.87;2.10;;;;;;;;;;5140176;27;20470;-71
2023/03/16 04:46:08;;;;;;;6.40;1.80;;;;;;;;;;5140971;27;20488;-71
2023/03/16 04:48:39;;;;;;;9.70;2.07;;;;;;;;;;5140619;27;20454;-71
2023/03/16 04:51:07;;;;;;;3.67;2.13;;;;;;;;;;5139959;27;20780;-71
2023/03/16 04:53:35;;;;;;;3.07;2.30;;;;;;;;;;5139957;27;20454;-71
2023/03/16 04:56:03;;;;;;;8.27;2.70;;;;;;;;;;5141364;27;20506;-71
2023/03/16 04:58:30;;;;;;;6.40;1.80;;;;;;;;;;5140123;27;20884;-72
2023/03/16 05:00:58;;;;;;;6.57;2.70;;;;;;;;;;5140778;27;20456;-71
2023/03/16 05:03:26;;;;;;;9.13;2.63;;;;;;;;;;5140286;27;20800;-71
2023/03/16 05:05:55;;;;;;;6.23;2.30;;;;;;;;;;5133538;27;20452;-72
2023/03/16 05:08:23;;;;;;;6.90;2.20;;;;;;;;;;5129802;27;20450;-71
2023/03/16 05:10:50;;;;;;;4.13;2.20;;;;;;;;;;5140572;27;20503;-71
2023/03/16 05:13:18;;;;;;;6.17;2.57;;;;;;;;;;5139090;27;20446;-72
2023/03/16 05:15:45;;;;;;;6.33;2.40;;;;;;;;;;5116125;27;20451;-72
2023/03/16 05:18:13;;;;;;;3.93;2.73;;;;;;;;;;5098320;28;20541;-72
2023/03/16 05:20:41;;;;;;;4.10;2.50;;;;;;;;;;5098926;28;20942;-72
2023/03/16 05:23:11;;;;;;;3.73;2.20;;;;;;;;;;5098762;28;20510;-71
2023/03/16 05:25:41;;;;;;;8.60;2.23;;;;;;;;;;5099012;28;20550;-72
2023/03/16 05:28:10;;;;;;;3.80;2.47;;;;;;;;;;5103516;28;20443;-71
2023/03/16 05:30:40;;;;;;;7.23;1.87;;;;;;;;;;5117448;28;20481;-72
2023/03/16 05:33:15;;;;;;;5.77;2.77;;;;;;;;;;5111778;27;20848;-70
2023/03/16 05:35:43;;;;;;;6.70;2.07;;;;;;;;;;5098176;28;20447;-71
2023/03/16 05:38:14;;;;;;;5.60;2.70;;;;;;;;;;5098397;28;20454;-72
2023/03/16 05:40:42;;;;;;;5.07;1.97;;;;;;;;;;5098736;28;20467;-72
2023/03/16 05:43:10;;;;;;;7.33;3.27;;;;;;;;;;5105438;28;20451;-72
2023/03/16 05:45:38;;;;;;;8.40;2.67;;;;;;;;;;5116179;28;20481;-71
2023/03/16 05:48:07;;;;;;;5.47;2.43;;;;;;;;;;5116230;27;21123;-71
2023/03/16 05:50:35;;;;;;;9.50;2.43;;;;;;;;;;5110878;28;20447;-72
2023/03/16 05:53:03;;;;;;;5.80;2.30;;;;;;;;;;5117807;28;20447;-72
2023/03/16 05:55:34;;;;;;;5.10;2.30;;;;;;;;;;5118128;28;20794;-72
2023/03/16 05:58:02;;;;;;;8.20;2.53;;;;;;;;;;5117969;28;20458;-71
2023/03/16 06:00:30;;;;;;;8.63;2.97;;;;;;;;;;5117015;28;20842;-72
2023/03/16 06:02:58;;;;;;;5.10;2.67;;;;;;;;;;5117506;28;20451;-72
2023/03/16 06:05:27;;;;;;;9.23;2.93;;;;;;;;;;5118422;28;20459;-72
2023/03/16 06:07:55;;;;;;;7.27;2.53;;;;;;;;;;5117997;28;20471;-71
2023/03/16 06:10:26;;;;;;;6.87;3.00;;;;;;;;;;5104225;28;20708;-72
2023/03/16 06:12:56;;;;;;;4.27;2.30;;;;;;;;;;5112255;28;20551;-72
2023/03/16 06:15:25;;;;;;;5.17;2.77;;;;;;;;;;5117804;28;20495;-72
2023/03/16 06:17:58;;;;;;;5.30;2.70;;;;;;;;;;5110942;28;20502;-72
2023/03/16 06:20:29;;;;;;;5.43;3.03;;;;;;;;;;5125544;27;20548;-72
2023/03/16 06:22:57;;;;;;;9.50;2.60;;;;;;;;;;5135495;27;20814;-72
2023/03/16 06:25:27;;;;;;;8.80;3.70;;;;;;;;;;5138210;27;20479;-71
2023/03/16 06:27:56;;;;;;;5.50;2.47;;;;;;;;;;5135207;27;20470;-71
2023/03/16 06:30:24;;;;;;;8.03;2.80;;;;;;;;;;5136958;27;20469;-71
2023/03/16 06:32:52;;;;;;;14.53;3.43;;;;;;;;;;5134381;27;20482;-71
2023/03/16 06:35:19;;;;;;;8.90;3.00;;;;;;;;;;5134308;27;20449;-71
2023/03/16 06:37:47;;;;;;;3.70;2.30;;;;;;;;;;5132918;27;20538;-72
2023/03/16 06:40:15;;;;;;;5.80;3.80;;;;;;;;;;5134965;27;20450;-71
2023/03/16 06:42:43;;;;;;;8.87;3.40;;;;;;;;;;5135616;27;20464;-71
2023/03/16 06:45:14;;;;;;;5.40;2.70;;;;;;;;;;5130071;27;20532;-70
2023/03/16 06:47:45;;;;;;;5.83;2.77;;;;;;;;;;5099326;28;20508;-72
2023/03/16 06:50:16;;;;;;;5.83;2.33;;;;;;;;;;5093935;28;20451;-72
2023/03/16 06:52:44;;;;;;;6.40;3.97;;;;;;;;;;5093519;28;20506;-71
2023/03/16 06:55:13;;;;;;;5.70;2.80;;;;;;;;;;5092390;28;20448;-72
2023/03/16 06:57:41;;;;;;;5.10;2.93;;;;;;;;;;5093063;28;20453;-72
2023/03/16 07:00:10;;;;;;;8.37;3.10;;;;;;;;;;5092718;28;20476;-72
2023/03/16 07:02:42;;;;;;;5.60;3.00;;;;;;;;;;5092539;28;20550;-72
2023/03/16 07:05:11;;;;;;;7.90;2.73;;;;;;;;;;5094417;28;20444;-72
2023/03/16 07:07:39;;;;;;;7.37;4.00;;;;;;;;;;5094588;28;20887;-72
2023/03/16 07:10:08;;;;;;;6.90;2.50;;;;;;;;;;5094084;28;20458;-72
2023/03/16 07:12:37;;;;;;;5.33;2.57;;;;;;;;;;5094158;28;20491;-73
2023/03/16 07:15:05;;;;;;;17.50;3.03;;;;;;;;;;5095432;28;20448;-72
2023/03/16 07:17:32;;;;;;;8.07;2.60;;;;;;;;;;5095381;28;20455;-71
2023/03/16 07:20:04;;;;;;;6.73;2.73;;;;;;;;;;5093477;28;20929;-72
2023/03/16 07:22:32;;;;;;;5.80;2.73;;;;;;;;;;5093777;28;20482;-72
2023/03/16 07:25:00;;;;;;;4.97;2.00;;;;;;;;;;5095489;28;20811;-71
2023/03/16 07:27:28;;;;;;;7.80;2.77;;;;;;;;;;5112332;28;20527;-72
2023/03/16 07:29:56;;;;;;;9.53;2.83;;;;;;;;;;5105863;28;20463;-73
2023/03/16 07:32:24;;;;;;;3.83;2.53;;;;;;;;;;5114224;28;20485;-72
2023/03/16 07:34:52;;;;;;;4.83;2.37;;;;;;;;;;5113627;28;20908;-73
2023/03/16 07:37:24;;;;;;;3.90;2.47;;;;;;;;;;5115655;28;20447;-72
2023/03/16 07:39:52;;;;;;;4.87;2.73;;;;;;;;;;5115891;28;21018;-73
2023/03/16 07:42:21;;;;;;;10.67;2.77;;;;;;;;;;5115890;28;20443;-72
2023/03/16 07:44:50;;;;;;;5.20;2.67;;;;;;;;;;5110819;28;20514;-73
2023/03/16 07:47:25;;;;;;;5.73;2.23;;;;;;;;;;5109992;28;20579;-72
2023/03/16 07:49:53;;;;;;;5.33;2.30;;;;;;;;;;5115372;28;20498;-73
2023/03/16 07:52:21;;;;;;;5.30;2.33;;;;;;;;;;5113776;28;20565;-72
2023/03/16 07:54:50;;;;;;;4.93;2.63;;;;;;;;;;5115357;28;20905;-72
2023/03/16 07:57:24;;;;;;;5.73;2.20;;;;;;;;;;5101677;28;21057;-71
2023/03/16 08:02:45;;;;;;;10.13;2.63;;;;;;;;;;5091680;28;20444;-72
2023/03/16 08:05:14;;;;;;;5.63;2.30;;;;;;;;;;5095961;28;20814;-73
2023/03/16 08:07:41;;;;;;;3.60;2.17;;;;;;;;;;5115907;28;20534;-71
2023/03/16 08:10:13;;;;;;;6.90;2.00;;;;;;;;;;5104689;28;20463;-73
2023/03/16 08:12:41;;;;;;;4.63;1.83;;;;;;;;;;5096997;28;20505;-73
2023/03/16 08:15:14;;;;;;;5.10;2.30;;;;;;;;;;5098334;28;20455;-71
2023/03/16 08:17:43;;;;;;;12.97;3.30;;;;;;;;;;5108107;28;20545;-71
2023/03/16 08:20:14;;;;;;;7.23;2.30;;;;;;;;;;5139678;27;20445;-72
2023/03/16 08:22:45;;;;;;;3.47;2.07;;;;;;;;;;5130452;27;20487;-71
2023/03/16 08:25:14;;;;;;;10.13;3.63;;;;;;;;;;5106446;27;22095;-71
2023/03/16 08:27:43;;;;;;;13.73;7.70;;;;;;;;;;5110778;27;21006;-73
2023/03/16 08:30:13;;;;;;;13.63;6.83;;;;;;;;;;5104168;28;20454;-73
2023/03/16 08:32:41;;;;;;;5.67;3.10;;;;;;;;;;5128087;27;20579;-74
2023/03/16 08:35:12;;;;;;;5.50;2.30;;;;;;;;;;5103739;28;20449;-73
2023/03/16 08:37:40;;;;;;;4.23;2.07;;;;;;;;;;5114244;28;20888;-72
2023/03/16 08:40:13;;;;;;;3.50;1.83;;;;;;;;;;5118962;28;20446;-72
2023/03/16 08:42:43;;;;;;;7.63;1.93;;;;;;;;;;5098245;28;20754;-73
2023/03/16 08:45:13;;;;;;;9.37;2.17;;;;;;;;;;5113324;28;20463;-74
2023/03/16 08:47:46;;;;;;;4.50;2.23;;;;;;;;;;5126575;27;20554;-72
2023/03/16 08:50:19;;;;;;;5.30;2.10;;;;;;;;;;5098659;28;20751;-73
2023/03/16 08:52:50;;;;;;;4.30;1.90;;;;;;;;;;5104808;28;20789;-72
2023/03/16 08:55:18;;;;;;;5.30;1.73;;;;;;;;;;5110344;28;20481;-74
2023/03/16 08:57:48;;;;;;;4.33;1.50;;;;;;;;;;5105122;28;20455;-73
2023/03/16 09:00:30;;;;;;;5.70;2.83;;;;;;;;;;5111450;27;20452;-74
2023/03/16 09:02:58;;;;;;;3.33;1.60;;;;;;;;;;5106090;28;20835;-74
2023/03/16 09:05:25;;;;;;;8.70;2.40;;;;;;;;;;5098805;27;20459;-73
2023/03/16 09:13:48;;;;;;;6.40;1.80;;;;;;;;;;5098097;28;20486;-73
2023/03/16 09:16:19;;;;;;;7.37;2.30;;;;;;;;;;5111036;28;20859;-72
2023/03/16 09:18:50;;;;;;;5.33;2.03;;;;;;;;;;5115048;27;20548;-73
2023/03/16 09:21:36;;;;;;;6.70;1.47;;;;;;;;;;5107704;28;20478;-72
2023/03/16 09:24:08;;;;;;;6.27;1.80;;;;;;;;;;5100353;28;20483;-72
2023/03/16 09:26:36;;;;;;;3.43;1.43;;;;;;;;;;5107724;28;20482;-72
2023/03/16 09:29:08;;;;;;;6.33;2.50;;;;;;;;;;5105793;28;20455;-73
2023/03/16 09:31:37;;;;;;;4.70;1.70;;;;;;;;;;5100377;28;20458;-73
2023/03/16 09:34:10;;;;;;;4.53;1.60;;;;;;;;;;5104851;28;20523;-73
2023/03/16 09:46:29;;;;;;;6.90;2.97;;;;;;;;;;5096728;28;20516;-72
2023/03/16 09:52:30;;;;;;;5.93;2.00;;;;;;;;;;5091065;28;20487;-73
2023/03/16 09:55:26;;;;;;;5.40;1.50;;;;;;;;;;5096421;28;20847;-72
2023/03/16 10:01:30;;;;;;;4.70;1.93;;;;;;;;;;5079787;28;20465;-74
2023/03/16 10:10:20;;;;;;;2.67;1.00;;;;;;;;;;5087498;28;21116;-73
2023/03/16 10:12:53;;;;;;;3.33;1.20;;;;;;;;;;5097181;28;20570;-73
2023/03/16 10:15:31;;;;;;;9.10;1.83;;;;;;;;;;5098893;28;20483;-75
2023/03/16 10:18:02;;;;;;;6.47;1.47;;;;;;;;;;5097023;28;20770;-73
2023/03/16 10:20:46;;;;;;;4.30;1.03;;;;;;;;;;5096965;28;20562;-72
2023/03/16 10:23:23;;;;;;;5.67;1.20;;;;;;;;;;5096300;28;20455;-73
2023/03/16 10:29:23;;;;;;;7.70;1.20;;;;;;;;;;5096092;28;20526;-73
2023/03/16 10:32:12;;;;;;;5.93;1.20;;;;;;;;;;5102232;28;20817;-72
2023/03/16 10:34:58;;;;;;;;;;;;;;;;;;;;;
2023/03/16 10:37:40;;;;;;;4.35;1.15;;;;;;;;;;5097218;28;20428;-74
2023/03/16 10:43:09;;;;;;;3.23;0.83;;;;;;;;;;5096517;28;20491;-74
2023/03/16 10:45:45;;;;;;;3.63;1.03;;;;;;;;;;5095731;28;20470;-73
2023/03/16 10:48:14;;;;;;;3.73;1.03;;;;;;;;;;5095910;28;20750;-74
2023/03/16 10:51:04;;;;;;;6.37;1.60;;;;;;;;;;5095029;28;20459;-73
2023/03/16 10:53:51;;;;;;;2.57;0.97;;;;;;;;;;5094735;28;20480;-73
2023/03/16 10:56:22;;;;;;;4.03;1.10;;;;;;;;;;5096917;28;20463;-73
2023/03/16 10:59:00;;;;;;;4.47;0.90;;;;;;;;;;5115022;28;20450;-74
2023/03/16 11:02:01;;;;;;;2.77;0.70;;;;;;;;;;5089756;28;20462;-74
2023/03/16 11:04:36;;;;;;;3.97;0.97;;;;;;;;;;5103999;28;20488;-75
2023/03/16 11:07:13;;;;;;;3.17;1.07;;;;;;;;;;5105396;28;20439;-73
2023/03/16 11:12:49;;;;;;;2.57;0.90;;;;;;;;;;5091645;28;20572;-74
2023/03/16 11:15:20;;;;;;;3.60;1.60;;;;;;;;;;5100402;28;20460;-74
2023/03/16 11:17:50;;;;;;;4.67;0.97;;;;;;;;;;5110365;28;20454;-73
2023/03/16 11:20:19;;;;;;;3.57;0.87;;;;;;;;;;5114147;28;20482;-73
2023/03/16 11:22:53;;;;;;;4.30;1.10;;;;;;;;;;5111816;28;20993;-74
2023/03/16 11:25:27;;;;;;;4.03;1.03;;;;;;;;;;5113278;28;20429;-73
2023/03/16 11:28:07;;;;;;;3.50;0.90;;;;;;;;;;5114379;28;20515;-73
2023/03/16 11:30:46;;;;;;;3.83;0.90;;;;;;;;;;5115846;28;20766;-73
2023/03/16 11:36:26;;;;;;;5.77;1.00;;;;;;;;;;5103356;28;20465;-74
2023/03/16 11:39:06;;;;;;;4.77;1.40;;;;;;;;;;5108764;28;20478;-73
2023/03/16 11:41:40;;;;;;;3.93;0.90;;;;;;;;;;5115099;28;20454;-73
2023/03/16 11:44:35;;;;;;;5.60;1.17;;;;;;;;;;5111062;28;20450;-73
2023/03/16 11:47:14;;;;;;;3.00;1.00;;;;;;;;;;5114853;28;20467;-72
2023/03/16 11:49:57;;;;;;;3.97;1.03;;;;;;;;;;5111885;28;20937;-72
2023/03/16 11:56:10;;;;;;;5.90;1.60;;;;;;;;;;5095283;28;20442;-71
2023/03/16 11:58:48;;;;;;;4.10;1.37;;;;;;;;;;5119034;28;20496;-72
2023/03/16 12:01:25;;;;;;;4.73;1.60;;;;;;;;;;5118970;28;20870;-72
2023/03/16 12:04:06;;;;;;;4.97;2.20;;;;;;;;;;5117789;28;20850;-72
2023/03/16 12:06:52;;;;;;;4.10;1.00;;;;;;;;;;5111925;28;20808;-72
2023/03/16 12:09:47;;;;;;;3.63;0.93;;;;;;;;;;5098851;28;20443;-72
2023/03/16 12:12:21;;;;;;;3.37;1.10;;;;;;;;;;5106885;28;20941;-72
2023/03/16 12:14:55;;;;;;;4.30;1.33;;;;;;;;;;5102903;28;20918;-73
2023/03/16 12:17:27;;;;;;;7.43;2.00;;;;;;;;;;5081531;28;20511;-71
2023/03/16 12:20:09;;;;;;;5.60;2.53;;;;;;;;;;5111723;28;20545;-71
2023/03/16 12:22:48;;;;;;;6.30;1.90;;;;;;;;;;5113045;28;20462;-71
2023/03/16 12:28:33;;;;;;;6.13;2.00;;;;;;;;;;5102534;28;20461;-72
2023/03/16 12:31:17;;;;;;;3.90;0.90;;;;;;;;;;5108382;28;20450;-72
2023/03/16 12:37:05;;;;;;;2.80;1.00;;;;;;;;;;5085061;28;20757;-71
2023/03/16 12:39:44;;;;;;;3.30;1.17;;;;;;;;;;5101888;28;20541;-72
2023/03/16 12:42:47;;;;;;;13.00;3.80;;;;;;;;;;5101077;28;20451;-72
2023/03/16 12:48:18;;;;;;;6.67;3.23;;;;;;;;;;5115527;28;20931;-71
2023/03/16 12:51:03;;;;;;;3.37;1.27;;;;;;;;;;5119050;28;20470;-72
2023/03/16 12:53:57;;;;;;;5.50;2.10;;;;;;;;;;5104146;28;20540;-71
2023/03/16 12:59:22;;;;;;;3.83;1.03;;;;;;;;;;5096265;28;20564;-72
2023/03/16 13:02:32;;;;;;;5.17;1.90;;;;;;;;;;5097004;28;20455;-72
2023/03/16 13:05:25;;;;;;;8.23;4.40;;;;;;;;;;5104307;28;20482;-72
2023/03/16 13:08:19;;;;;;;3.80;0.90;;;;;;;;;;5112259;28;20447;-73
2023/03/16 13:11:04;;;;;;;5.03;1.27;;;;;;;;;;5107118;28;20438;-73
2023/03/16 13:13:50;;;;;;;7.60;3.13;;;;;;;;;;5108230;28;20574;-72
2023/03/16 13:16:26;;;;;;;4.97;0.80;;;;;;;;;;5110673;28;20542;-74
2023/03/16 13:18:54;;;;;;;4.47;1.07;;;;;;;;;;5111728;28;20450;-72
2023/03/16 13:21:37;;;;;;;5.07;1.17;;;;;;;;;;5113825;28;20470;-73
2023/03/16 13:24:37;;;;;;;3.33;0.80;;;;;;;;;;5096831;28;20480;-73
2023/03/16 13:27:36;;;;;;;3.67;1.67;;;;;;;;;;5098597;28;20454;-73
2023/03/16 13:30:27;;;;;;;5.33;1.00;;;;;;;;;;5104248;28;20550;-72
2023/03/16 13:33:09;;;;;;;5.53;1.77;;;;;;;;;;5081654;28;20514;-72
2023/03/16 13:35:48;;;;;;;7.37;1.10;;;;;;;;;;5104705;28;20458;-73
2023/03/16 13:41:30;;;;;;;7.30;3.00;;;;;;;;;;5095813;28;20481;-74
2023/03/16 13:47:06;;;;;;;4.33;1.57;;;;;;;;;;5098888;28;21052;-73
2023/03/16 13:55:51;;;;;;;4.17;1.30;;;;;;;;;;5103711;28;20434;-72
2023/03/16 13:58:24;;;;;;;20.43;2.30;;;;;;;;;;5105418;28;20443;-72
2023/03/16 14:01:02;;;;;;;4.53;1.20;;;;;;;;;;5104949;28;20452;-73
2023/03/16 14:03:32;;;;;;;2.03;0.77;;;;;;;;;;5100297;28;20447;-73
2023/03/16 14:14:59;;;;;;;2.57;1.30;;;;;;;;;;5091068;28;20555;-71
2023/03/16 14:17:30;;;;;;;2.97;1.17;;;;;;;;;;5086478;28;20459;-74
2023/03/16 14:20:06;;;;;;;3.90;1.50;;;;;;;;;;5091568;28;20460;-73
2023/03/16 14:25:55;;;;;;;2.73;1.30;;;;;;;;;;5048336;28;20435;-73
2023/03/16 14:28:35;;;;;;;4.77;1.27;;;;;;;;;;5074064;28;20484;-73
2023/03/16 14:31:20;;;;;;;3.30;1.07;;;;;;;;;;5092302;28;20463;-71
2023/03/16 14:33:51;;;;;;;3.60;1.30;;;;;;;;;;5090897;28;20537;-73
2023/03/16 14:36:31;;;;;;;2.60;1.10;;;;;;;;;;5092232;28;20448;-73
2023/03/16 14:39:18;;;;;;;4.10;1.60;;;;;;;;;;5083185;28;20931;-73
2023/03/16 14:41:55;;;;;;;2.33;1.10;;;;;;;;;;5084801;28;20444;-72
2023/03/16 14:44:30;;;;;;;3.87;1.10;;;;;;;;;;5088788;28;20448;-73
2023/03/16 14:47:42;;;;;;;2.63;1.13;;;;;;;;;;5091704;28;20450;-73
2023/03/16 14:50:22;;;;;;;3.37;1.57;;;;;;;;;;5091384;28;20462;-73
2023/03/16 14:53:10;;;;;;;4.07;2.03;;;;;;;;;;5089856;28;20501;-72
2023/03/16 14:55:44;;;;;;;3.90;0.97;;;;;;;;;;5088326;28;20456;-73
2023/03/16 14:58:15;;;;;;;3.10;1.33;;;;;;;;;;5090468;28;20484;-73
2023/03/16 15:00:53;;;;;;;5.90;1.00;;;;;;;;;;5091556;28;20736;-73
2023/03/16 15:03:27;;;;;;;5.97;1.30;;;;;;;;;;5090511;28;20934;-73
2023/03/16 15:05:55;;;;;;;3.30;1.07;;;;;;;;;;5088587;28;20517;-74
2023/03/16 15:08:25;;;;;;;2.60;1.00;;;;;;;;;;5089880;28;20563;-73
2023/03/16 15:10:57;;;;;;;5.90;1.80;;;;;;;;;;5090141;28;20464;-72
2023/03/16 15:13:51;;;;;;;2.30;0.90;;;;;;;;;;5091217;28;21027;-72
2023/03/16 15:16:33;;;;;;;5.53;2.17;;;;;;;;;;5087360;28;20456;-73
2023/03/16 15:19:01;;;;;;;2.93;0.90;;;;;;;;;;5065389;28;20433;-71
2023/03/16 15:21:29;;;;;;;4.30;1.77;;;;;;;;;;5065516;28;20465;-72
2023/03/16 15:24:10;;;;;;;6.47;1.90;;;;;;;;;;5076057;28;20448;-72
2023/03/16 15:26:39;;;;;;;4.00;1.47;;;;;;;;;;5074770;28;20471;-72
2023/03/16 15:29:18;;;;;;;4.20;2.00;;;;;;;;;;5075096;28;20484;-72
2023/03/16 15:31:48;;;;;;;5.73;1.60;;;;;;;;;;5067266;28;20529;-72
2023/03/16 15:34:27;;;;;;;;;;;;;;;;;;;;;
2023/03/16 15:40:10;;;;;;;4.87;2.03;;;;;;;;;;5076411;28;20444;-71
2023/03/16 15:42:46;;;;;;;4.90;1.50;;;;;;;;;;5071949;28;20553;-71
2023/03/16 15:45:17;;;;;;;2.37;1.00;;;;;;;;;;5069476;28;20452;-72
2023/03/16 15:47:48;;;;;;;2.30;1.20;;;;;;;;;;5075731;28;20559;-71
2023/03/16 15:50:23;;;;;;;5.40;2.13;;;;;;;;;;5077774;28;20455;-73
2023/03/16 15:56:04;;;;;;;4.90;1.50;;;;;;;;;;5064271;28;20881;-71
2023/03/16 15:58:32;;;;;;;5.37;2.80;;;;;;;;;;5076248;28;20449;-72
2023/03/16 16:03:44;;;;;;;5.47;1.67;;;;;;;;;;5074676;28;20613;-71
2023/03/16 16:06:29;;;;;;;5.23;1.53;;;;;;;;;;5087908;28;20875;-72
2023/03/16 16:09:14;;;;;;;3.47;1.50;;;;;;;;;;5093050;28;20842;-72
2023/03/16 16:11:50;;;;;;;12.13;5.50;;;;;;;;;;5076451;28;20443;-72
2023/03/16 16:14:24;;;;;;;4.77;2.13;;;;;;;;;;5075932;28;20483;-72
2023/03/16 16:19:48;;;;;;;3.73;1.60;;;;;;;;;;5070210;28;20953;-72
2023/03/16 16:22:26;;;;;;;2.63;0.90;;;;;;;;;;5056918;28;20438;-71
2023/03/16 16:24:58;;;;;;;5.50;1.20;;;;;;;;;;5069639;28;20455;-71
2023/03/16 16:27:49;;;;;;;3.10;1.10;;;;;;;;;;5075434;28;20455;-72
2023/03/16 16:30:24;;;;;;;3.10;1.40;;;;;;;;;;5068842;28;20506;-72
2023/03/16 16:33:09;;;;;;;6.23;0.97;;;;;;;;;;5060106;28;20460;-72
2023/03/16 16:35:47;;;;;;;6.83;1.97;;;;;;;;;;5076018;28;20471;-72
2023/03/16 16:38:15;;;;;;;3.00;0.90;;;;;;;;;;5076798;28;20441;-72
2023/03/16 16:40:50;;;;;;;3.37;1.20;;;;;;;;;;5077079;28;20845;-72
2023/03/16 16:46:46;;;;;;;2.90;1.17;;;;;;;;;;5054487;28;20506;-73
2023/03/16 16:49:24;;;;;;;2.73;1.23;;;;;;;;;;5056799;28;20489;-71
2023/03/16 16:52:02;;;;;;;2.90;1.13;;;;;;;;;;5059845;28;20452;-71
2023/03/16 16:54:34;;;;;;;3.00;1.47;;;;;;;;;;5074601;28;20457;-71
2023/03/16 16:57:31;;;;;;;4.30;1.23;;;;;;;;;;5075048;28;20519;-72
2023/03/16 17:00:38;;;;;;;6.57;2.00;;;;;;;;;;5077805;28;20455;-73